createdAt,value
2022-09-27T00:04:14.392Z,99765.03
2022-09-27T00:09:36.314Z,99783.88
2022-09-27T00:14:57.943Z,99778.34
2022-09-27T00:20:21.965Z,99800.81
2022-09-27T00:25:43.595Z,99804.69
2022-09-27T00:31:05.573Z,99808.59
2022-09-27T00:36:28.631Z,99818.00
2022-09-27T00:41:50.840Z,99821.03
2022-09-27T00:47:35.926Z,99820.50
2022-09-27T00:53:10.606Z,99834.38
2022-09-27T00:58:37.430Z,99836.59
2022-09-27T01:04:08.165Z,99839.63
2022-09-27T01:09:30.329Z,99826.00
2022-09-27T01:14:54.734Z,99821.31
2022-09-27T01:20:41.266Z,99832.41
2022-09-27T01:26:50.964Z,99843.50
2022-09-27T01:32:23.997Z,99851.25
2022-09-27T01:37:55.333Z,99869.00
2022-09-27T01:43:23.202Z,99869.00
2022-09-27T01:48:48.955Z,99862.88
2022-09-27T01:54:14.923Z,99850.13
2022-09-27T01:59:50.690Z,99850.13
2022-09-27T02:05:14.417Z,99853.19
2022-09-27T02:10:43.842Z,99856.78
2022-09-27T02:16:28.967Z,99861.50
2022-09-27T02:22:06.976Z,99872.84
2022-09-27T02:27:34.397Z,99860.94
2022-09-27T02:32:56.113Z,99857.63
2022-09-27T02:38:18.183Z,99863.97
2022-09-27T02:43:40.084Z,99865.13
2022-09-27T02:49:38.972Z,99867.88
2022-09-27T02:55:00.643Z,99860.09
2022-09-27T03:00:27.871Z,99859.00
2022-09-27T03:05:59.009Z,99852.59
2022-09-27T03:11:20.626Z,99862.03
2022-09-27T03:16:42.459Z,99856.50
2022-09-27T03:22:04.259Z,99851.22
2022-09-27T03:27:25.897Z,99859.53
2022-09-27T03:32:47.568Z,99855.09
2022-09-27T03:38:10.930Z,99845.97
2022-09-27T03:43:32.609Z,99853.44
2022-09-27T03:48:54.524Z,99864.53
2022-09-27T03:54:16.282Z,99875.63
2022-09-27T03:59:37.919Z,99875.91
2022-09-27T04:04:59.639Z,99878.69
2022-09-27T04:10:21.828Z,99855.66
2022-09-27T04:15:43.569Z,99852.06
2022-09-27T04:21:05.424Z,99865.34
2022-09-27T04:26:27.158Z,99858.72
2022-09-27T04:31:48.801Z,99860.63
2022-09-27T04:37:11.627Z,99865.66
2022-09-27T04:42:34.203Z,99854.56
2022-09-27T04:47:56.039Z,99861.19
2022-09-27T04:53:17.686Z,99877.84
2022-09-27T04:58:39.855Z,99897.22
2022-09-27T05:04:01.680Z,99896.66
2022-09-27T05:09:23.371Z,99889.47
2022-09-27T05:14:45.262Z,99888.34
2022-09-27T05:20:07.224Z,99878.38
2022-09-27T05:25:28.901Z,99867.28
2022-09-27T05:30:50.728Z,99884.47
2022-09-27T05:36:12.831Z,99871.72
2022-09-27T05:41:34.599Z,99860.63
2022-09-27T05:46:56.314Z,99856.19
2022-09-27T05:52:20.194Z,99858.97
2022-09-27T05:57:43.178Z,99870.34
2022-09-27T06:03:06.453Z,99870.34
2022-09-27T06:08:28.138Z,99856.50
2022-09-27T06:13:49.831Z,99845.66
2022-09-27T06:19:11.909Z,99850.38
2022-09-27T06:24:33.527Z,99853.41
2022-09-27T06:29:56.121Z,99847.88
2022-09-27T06:35:17.765Z,99854.25
2022-09-27T06:40:40.182Z,99859.25
2022-09-27T06:46:06.020Z,99854.81
2022-09-27T06:51:27.789Z,99857.03
2022-09-27T07:02:11.160Z,99855.09
2022-09-27T07:07:32.901Z,99854.81
2022-09-27T07:12:55.855Z,99871.75
2022-09-27T07:18:17.596Z,99874.53
2022-09-27T07:23:39.576Z,99878.97
2022-09-27T07:29:01.720Z,99885.03
2022-09-27T07:34:23.349Z,99885.59
2022-09-27T07:39:45.275Z,99877.84
2022-09-27T07:45:09.256Z,99885.63
2022-09-27T07:50:31.111Z,99885.66
2022-09-27T07:55:53.813Z,99892.31
2022-09-27T08:01:15.596Z,99894.25
2022-09-27T08:06:37.296Z,99897.88
2022-09-27T08:11:59.010Z,99909.22
2022-09-27T08:17:20.649Z,99896.19
2022-09-27T08:22:46.085Z,99903.94
2022-09-27T08:28:07.716Z,99911.72
2022-09-27T08:33:32.897Z,99918.34
2022-09-27T08:38:59.214Z,99910.91
2022-09-27T08:44:36.677Z,99912.28
2022-09-27T08:50:17.197Z,99921.44
2022-09-27T08:55:42.977Z,99929.47
2022-09-27T09:01:12.379Z,99936.69
2022-09-27T09:07:01.549Z,99930.88
2022-09-27T09:12:49.354Z,99935.59
2022-09-27T09:18:17.049Z,99935.03
2022-09-27T09:23:54.558Z,99926.72
2022-09-27T09:29:28.382Z,99929.22
2022-09-27T09:34:58.323Z,99925.34
2022-09-27T09:40:29.226Z,99915.09
2022-09-27T09:45:58.098Z,99915.63
2022-09-27T09:51:30.268Z,99919.50
2022-09-27T09:57:06.004Z,99912.84
2022-09-27T10:02:33.091Z,99917.81
2022-09-27T10:07:59.457Z,99917.84
2022-09-27T10:13:22.788Z,99919.50
2022-09-27T10:18:50.134Z,99924.50
2022-09-27T10:24:18.864Z,99919.78
2022-09-27T10:29:40.702Z,99920.88
2022-09-27T10:35:32.190Z,99918.97
2022-09-27T10:40:56.220Z,99917.84
2022-09-27T10:46:34.412Z,99915.06
2022-09-27T10:52:08.874Z,99910.63
2022-09-27T10:57:31.835Z,99912.28
2022-09-27T11:02:57.799Z,99904.53
2022-09-27T11:08:19.424Z,99895.91
2022-09-27T11:13:42.053Z,99904.50
2022-09-27T11:19:21.410Z,99898.38
2022-09-27T11:25:04.738Z,99893.94
2022-09-27T11:30:35.971Z,99883.13
2022-09-27T11:36:05.022Z,99885.03
2022-09-27T11:41:51.572Z,99869.50
2022-09-27T11:47:20.669Z,99860.06
2022-09-27T11:53:24.692Z,99864.53
2022-09-27T11:59:24.942Z,99857.34
2022-09-27T12:04:58.981Z,99852.38
2022-09-27T12:10:21.901Z,99865.16
2022-09-27T12:15:47.751Z,99857.38
2022-09-27T12:21:11.207Z,99856.56
2022-09-27T12:26:44.898Z,99861.81
2022-09-27T12:32:19.449Z,99886.78
2022-09-27T12:37:48.697Z,99875.69
2022-09-27T12:43:19.624Z,99871.25
2022-09-27T12:49:05.034Z,99871.25
2022-09-27T12:54:53.870Z,99861.25
2022-09-27T13:00:21.433Z,99851.00
2022-09-27T13:05:59.828Z,99850.97
2022-09-27T13:11:39.955Z,99834.00
2022-09-27T13:17:01.927Z,99825.69
2022-09-27T13:22:37.566Z,99829.28
2022-09-27T13:27:59.178Z,99822.59
2022-09-27T13:33:43.333Z,99811.81
2022-09-27T13:39:06.790Z,99820.13
2022-09-27T13:44:49.164Z,99811.25
2022-09-27T13:50:18.407Z,99810.13
2022-09-27T13:55:51.546Z,99823.50
2022-09-27T14:01:13.228Z,99832.66
2022-09-27T14:06:42.189Z,99834.31
2022-09-27T14:12:12.331Z,99824.03
2022-09-27T14:17:34.320Z,99832.41
2022-09-27T14:22:56.014Z,99835.72
2022-09-27T14:28:26.562Z,99837.94
2022-09-27T14:33:48.684Z,99841.84
2022-09-27T14:39:16.147Z,99827.97
2022-09-27T14:44:43.967Z,99809.09
2022-09-27T14:50:20.328Z,99805.22
2022-09-27T14:55:45.598Z,99797.47
2022-09-27T15:01:07.322Z,99806.34
2022-09-27T15:06:29.153Z,99808.53
2022-09-27T15:11:57.270Z,99806.91
2022-09-27T15:17:21.601Z,99791.63
2022-09-27T15:22:47.569Z,99790.81
2022-09-27T15:28:12.204Z,99785.84
2022-09-27T15:33:36.836Z,99779.44
2022-09-27T15:39:10.417Z,99744.50
2022-09-27T15:44:50.177Z,99737.84
2022-09-27T15:50:20.555Z,99741.16
2022-09-27T15:55:44.160Z,99736.72
2022-09-27T16:01:06.412Z,99727.28
2022-09-27T16:06:29.179Z,99725.03
2022-09-27T16:11:51.200Z,99711.72
2022-09-27T16:17:13.068Z,99706.72
2022-09-27T16:22:34.818Z,99706.44
2022-09-27T16:28:01.042Z,99701.19
2022-09-27T16:33:22.772Z,99704.78
2022-09-27T16:38:44.449Z,99704.78
2022-09-27T16:44:13.944Z,99703.38
2022-09-27T16:49:54.419Z,99697.81
2022-09-27T16:55:24.252Z,99698.66
2022-09-27T17:00:45.956Z,99682.03
2022-09-27T17:06:07.758Z,99671.47
2022-09-27T17:11:29.970Z,99667.84
2022-09-27T17:16:52.757Z,99658.72
2022-09-27T17:22:14.514Z,99650.94
2022-09-27T17:27:36.160Z,99646.50
2022-09-27T17:32:58.290Z,99643.72
2022-09-27T17:38:20.600Z,99630.97
2022-09-27T17:43:49.721Z,99636.53
2022-09-27T17:49:31.182Z,99641.25
2022-09-27T17:54:57.651Z,99651.50
2022-09-27T18:00:20.568Z,99654.56
2022-09-27T18:05:42.516Z,99658.47
2022-09-27T18:11:06.161Z,99646.56
2022-09-27T18:16:35.114Z,99639.34
2022-09-27T18:21:57.026Z,99643.22
2022-09-27T18:27:20.213Z,99649.28
2022-09-27T18:32:41.851Z,99651.94
2022-09-27T18:38:03.551Z,99649.53
2022-09-27T18:43:25.975Z,99684.41
2022-09-27T18:48:47.650Z,99712.66
2022-09-27T18:54:20.392Z,99714.00
2022-09-27T18:59:42.072Z,99722.91
2022-09-27T19:05:04.002Z,99710.44
2022-09-27T19:10:25.818Z,99724.91
2022-09-27T19:15:57.949Z,99716.63
2022-09-27T19:21:22.747Z,99711.38
2022-09-27T19:26:44.543Z,99693.09
2022-09-27T19:32:06.628Z,99688.69
2022-09-27T19:37:28.245Z,99654.84
2022-09-27T19:42:53.698Z,99668.22
2022-09-27T19:48:15.423Z,99684.91
2022-09-27T19:53:37.051Z,99683.81
2022-09-27T19:58:58.697Z,99679.38
2022-09-27T20:04:23.698Z,99678.25
2022-09-27T20:09:48.184Z,99683.00
2022-09-27T20:15:09.981Z,99684.63
2022-09-27T20:20:31.601Z,99695.47
2022-09-27T20:25:53.191Z,99682.41
2022-09-27T20:31:17.917Z,99677.97
2022-09-27T20:36:45.255Z,99663.53
2022-09-27T20:42:06.960Z,99655.25
2022-09-27T20:47:28.647Z,99642.81
2022-09-27T20:52:50.603Z,99642.56
2022-09-27T20:58:12.229Z,99624.81
2022-09-27T21:03:34.652Z,99607.06
2022-09-27T21:08:56.408Z,99609.59
2022-09-27T21:14:18.204Z,99600.72
2022-09-27T21:19:39.957Z,99604.91
2022-09-27T21:25:01.698Z,99592.69
2022-09-27T21:30:24.337Z,99601.31
2022-09-27T21:35:50.092Z,99611.88
2022-09-27T21:41:16.859Z,99623.25
2022-09-27T21:46:40.954Z,99618.28
2022-09-27T21:52:02.750Z,99618.00
2022-09-27T21:57:24.354Z,99617.47
2022-09-27T22:02:46.065Z,99610.53
2022-09-27T22:08:07.795Z,99605.56
2022-09-27T22:13:29.671Z,99605.00
2022-09-27T22:18:53.277Z,99597.81
2022-09-27T22:24:17.411Z,99598.09
2022-09-27T22:29:39.040Z,99588.41
2022-09-27T22:35:00.688Z,99590.63
2022-09-27T22:40:22.361Z,99593.41
2022-09-27T22:45:44.069Z,99591.19
2022-09-27T22:51:07.940Z,99587.88
2022-09-27T22:56:29.592Z,99584.53
2022-09-27T23:01:51.322Z,99582.03
2022-09-27T23:07:13.462Z,99587.88
2022-09-27T23:12:35.218Z,99577.88
2022-09-27T23:17:56.874Z,99578.16
2022-09-27T23:23:18.506Z,99575.69
2022-09-27T23:28:40.821Z,99582.34
2022-09-27T23:34:04.660Z,99577.91
2022-09-27T23:39:26.473Z,99577.34
2022-09-27T23:44:48.113Z,99588.44
2022-09-27T23:50:09.960Z,99592.31
2022-09-27T23:55:31.575Z,99577.94
